createdAt,value
2022-08-05T00:00:19.048Z,3.60
2022-08-05T00:02:51.655Z,3.40
2022-08-05T00:06:02.764Z,3.43
2022-08-05T00:08:34.555Z,3.73
2022-08-05T00:10:56.840Z,3.60
2022-08-05T00:13:38.715Z,3.23
2022-08-05T00:16:10.996Z,3.60
2022-08-05T00:18:44.183Z,3.30
2022-08-05T00:21:12.322Z,3.50
2022-08-05T00:23:45.781Z,3.40
2022-08-05T00:26:20.762Z,3.00
2022-08-05T00:28:49.494Z,3.90
2022-08-05T00:31:16.485Z,3.13
2022-08-05T00:34:53.693Z,3.30
2022-08-05T00:37:11.306Z,3.40
2022-08-05T00:39:41.609Z,3.40
2022-08-05T00:42:36.570Z,3.20
2022-08-05T00:45:08.444Z,3.70
2022-08-05T00:47:53.220Z,3.90
2022-08-05T00:50:25.410Z,2.93
2022-08-05T00:52:55.002Z,3.60
2022-08-05T00:55:22.660Z,2.90
2022-08-05T00:57:58.147Z,3.10
2022-08-05T01:00:30.246Z,3.30
2022-08-05T01:02:59.909Z,3.33
2022-08-05T01:05:27.854Z,3.53
2022-08-05T01:08:41.291Z,2.87
2022-08-05T01:10:51.669Z,3.40
2022-08-05T01:13:59.142Z,3.37
2022-08-05T01:16:30.395Z,3.40
2022-08-05T01:19:06.519Z,3.20
2022-08-05T01:21:50.775Z,3.80
2022-08-05T01:24:44.154Z,3.80
2022-08-05T01:27:22.161Z,3.10
2022-08-05T01:29:52.898Z,3.30
2022-08-05T01:32:27.725Z,3.53
2022-08-05T01:34:59.365Z,2.93
2022-08-05T01:37:46.048Z,3.00
2022-08-05T01:40:17.986Z,3.47
2022-08-05T01:42:46.839Z,3.27
2022-08-05T01:45:16.616Z,3.23
2022-08-05T01:47:45.978Z,3.70
2022-08-05T01:50:28.878Z,3.47
2022-08-05T01:53:04.465Z,2.90
2022-08-05T01:55:36.059Z,3.67
2022-08-05T01:58:09.773Z,3.27
2022-08-05T02:00:45.571Z,3.30
2022-08-05T02:03:24.543Z,3.57
2022-08-05T02:06:03.327Z,3.70
2022-08-05T02:08:31.633Z,3.73
2022-08-05T02:11:33.169Z,3.30
2022-08-05T02:14:16.991Z,4.13
2022-08-05T02:16:52.979Z,3.40
2022-08-05T02:19:33.493Z,3.33
2022-08-05T02:22:25.843Z,3.60
2022-08-05T02:25:03.432Z,3.83
2022-08-05T02:27:58.532Z,3.67
2022-08-05T02:30:20.211Z,4.60
2022-08-05T02:32:51.444Z,3.50
2022-08-05T02:35:32.997Z,4.07
2022-08-05T02:38:05.328Z,3.53
2022-08-05T02:40:41.039Z,3.83
2022-08-05T02:43:09.394Z,3.80
2022-08-05T02:45:51.380Z,4.10
2022-08-05T02:48:21.424Z,3.80
2022-08-05T02:51:00.080Z,3.87
2022-08-05T02:53:39.755Z,4.37
2022-08-05T02:56:16.098Z,3.97
2022-08-05T02:58:51.121Z,3.63
2022-08-05T03:01:23.570Z,3.67
2022-08-05T03:04:02.764Z,4.03
2022-08-05T03:06:56.095Z,3.37
2022-08-05T03:09:36.121Z,3.80
2022-08-05T03:12:05.659Z,4.60
2022-08-05T03:14:32.609Z,4.27
2022-08-05T03:17:00.791Z,3.87
2022-08-05T03:19:33.184Z,3.87
2022-08-05T03:22:03.248Z,4.00
2022-08-05T03:24:33.711Z,3.80
2022-08-05T03:27:02.179Z,4.00
2022-08-05T03:29:44.501Z,4.00
2022-08-05T03:32:14.234Z,4.17
2022-08-05T03:34:42.668Z,4.00
2022-08-05T03:37:18.843Z,3.80
2022-08-05T03:39:58.824Z,4.10
2022-08-05T03:42:27.190Z,3.17
2022-08-05T03:44:56.129Z,4.07
2022-08-05T03:47:24.342Z,4.53
2022-08-05T03:49:52.461Z,3.50
2022-08-05T03:52:36.556Z,4.10
2022-08-05T03:56:04.183Z,3.60
2022-08-05T03:58:17.862Z,3.83
2022-08-05T04:00:46.473Z,3.67
2022-08-05T04:03:28.348Z,3.70
2022-08-05T04:05:58.063Z,3.30
2022-08-05T04:08:36.584Z,3.80
2022-08-05T04:11:08.596Z,3.70
2022-08-05T04:13:50.137Z,4.50
2022-08-05T04:16:25.133Z,3.90
2022-08-05T04:18:57.923Z,4.53
2022-08-05T04:22:08.895Z,3.90
2022-08-05T04:24:18.900Z,4.97
2022-08-05T04:26:49.365Z,4.23
2022-08-05T04:29:16.259Z,4.20
2022-08-05T04:31:43.174Z,4.20
2022-08-05T04:34:31.917Z,4.33
2022-08-05T04:36:57.215Z,4.10
2022-08-05T04:39:24.532Z,3.33
2022-08-05T04:41:54.674Z,3.40
2022-08-05T04:44:29.294Z,3.67
2022-08-05T04:46:59.054Z,4.27
2022-08-05T04:49:39.105Z,3.83
2022-08-05T04:52:14.059Z,4.20
2022-08-05T04:54:42.349Z,4.30
2022-08-05T04:57:09.285Z,4.50
2022-08-05T04:59:38.327Z,3.50
2022-08-05T05:02:41.477Z,3.87
2022-08-05T05:05:02.210Z,4.03
2022-08-05T05:07:32.499Z,4.40
2022-08-05T05:10:02.294Z,3.40
2022-08-05T05:12:30.072Z,3.67
2022-08-05T05:14:56.930Z,3.43
2022-08-05T05:17:55.969Z,3.60
2022-08-05T05:20:12.697Z,4.03
2022-08-05T05:22:41.016Z,3.90
2022-08-05T05:25:16.738Z,3.87
2022-08-05T05:27:53.547Z,3.70
2022-08-05T05:30:29.292Z,3.30
2022-08-05T05:33:00.438Z,4.10
2022-08-05T05:35:39.774Z,3.50
2022-08-05T05:38:13.146Z,3.70
2022-08-05T05:40:48.075Z,3.20
2022-08-05T05:43:27.646Z,3.70
2022-08-05T05:46:12.149Z,3.97
2022-08-05T05:48:41.920Z,3.23
2022-08-05T05:51:15.767Z,3.70
2022-08-05T05:53:45.902Z,3.57
2022-08-05T05:56:26.150Z,3.73
2022-08-05T05:59:06.502Z,3.80
2022-08-05T06:01:40.129Z,3.90
2022-08-05T06:04:12.901Z,3.93
2022-08-05T06:06:47.688Z,8.10
2022-08-05T06:09:17.593Z,3.90
2022-08-05T06:12:01.368Z,3.97
2022-08-05T06:14:34.631Z,4.10
2022-08-05T06:17:22.129Z,3.80
2022-08-05T06:19:56.330Z,3.97
2022-08-05T06:22:34.718Z,3.50
2022-08-05T06:25:24.947Z,3.60
2022-08-05T06:28:08.956Z,3.83
2022-08-05T06:30:37.037Z,3.90
2022-08-05T06:33:04.093Z,4.10
2022-08-05T06:36:07.665Z,3.90
2022-08-05T06:38:18.099Z,3.73
2022-08-05T06:41:03.598Z,4.10
2022-08-05T06:43:51.615Z,4.57
2022-08-05T06:46:18.527Z,4.63
2022-08-05T06:48:55.543Z,4.03
2022-08-05T06:51:30.100Z,4.37
2022-08-05T06:54:02.639Z,4.53
2022-08-05T06:56:33.374Z,4.67
2022-08-05T06:59:08.398Z,4.40
2022-08-05T07:01:36.709Z,4.27
2022-08-05T07:04:03.924Z,4.20
2022-08-05T07:06:31.771Z,3.80
2022-08-05T07:08:59.719Z,4.00
2022-08-05T07:11:32.075Z,4.07
2022-08-05T07:14:29.360Z,4.00
2022-08-05T07:18:01.973Z,5.37
2022-08-05T07:22:35.861Z,4.60
2022-08-05T07:25:23.720Z,4.50
2022-08-05T07:27:57.305Z,3.90
2022-08-05T07:30:34.205Z,4.33
2022-08-05T07:33:09.474Z,4.03
2022-08-05T07:36:01.559Z,4.17
2022-08-05T07:38:34.055Z,3.50
2022-08-05T07:42:06.975Z,4.50
2022-08-05T07:43:59.062Z,4.77
2022-08-05T07:46:27.497Z,4.80
2022-08-05T07:49:02.363Z,4.43
2022-08-05T07:51:37.399Z,4.23
2022-08-05T07:54:10.159Z,4.63
2022-08-05T07:57:02.785Z,5.30
2022-08-05T07:59:39.057Z,4.03
2022-08-05T08:02:15.656Z,3.80
2022-08-05T08:04:48.313Z,3.90
2022-08-05T08:07:22.212Z,3.30
2022-08-05T08:09:52.376Z,4.87
2022-08-05T08:12:36.960Z,3.43
2022-08-05T08:15:13.823Z,2.80
2022-08-05T08:17:45.981Z,3.50
2022-08-05T08:20:43.615Z,2.70
2022-08-05T08:23:01.821Z,2.80
2022-08-05T08:26:00.596Z,2.70
2022-08-05T08:28:36.696Z,2.90
2022-08-05T08:31:06.698Z,3.10
2022-08-05T08:33:37.713Z,2.37
2022-08-05T08:36:38.104Z,2.60
2022-08-05T08:38:55.922Z,2.93
2022-08-05T08:41:51.288Z,2.63
2022-08-05T08:45:18.519Z,2.77
2022-08-05T08:47:47.333Z,3.23
2022-08-05T08:50:22.826Z,2.70
2022-08-05T08:52:51.652Z,2.90
2022-08-05T08:56:02.540Z,3.07
2022-08-05T08:58:10.211Z,3.00
2022-08-05T09:00:41.436Z,2.80
2022-08-05T09:03:09.861Z,2.80
2022-08-05T09:05:38.782Z,3.20
2022-08-05T09:08:27.404Z,3.10
2022-08-05T09:10:59.329Z,3.30
2022-08-05T09:13:31.488Z,2.93
2022-08-05T09:15:59.841Z,4.00
2022-08-05T09:18:27.623Z,3.50
2022-08-05T09:20:57.156Z,3.23
2022-08-05T09:23:28.853Z,3.80
2022-08-05T09:26:10.282Z,3.67
2022-08-05T09:28:43.194Z,3.70
2022-08-05T09:31:22.570Z,3.50
2022-08-05T09:34:07.556Z,3.90
2022-08-05T09:36:56.001Z,3.60
2022-08-05T09:39:39.465Z,3.30
2022-08-05T09:42:17.339Z,2.80
2022-08-05T09:44:52.378Z,3.40
2022-08-05T09:47:25.545Z,3.20
2022-08-05T09:50:01.057Z,3.07
2022-08-05T09:52:34.671Z,2.73
2022-08-05T09:55:55.584Z,3.30
2022-08-05T09:57:54.776Z,2.93
2022-08-05T10:00:26.852Z,3.10
2022-08-05T10:02:58.670Z,2.73
2022-08-05T10:05:28.120Z,3.30
2022-08-05T10:08:35.947Z,2.93
2022-08-05T10:10:50.331Z,3.13
2022-08-05T10:13:48.125Z,3.20
2022-08-05T10:16:41.622Z,2.97
2022-08-05T10:19:23.585Z,2.90
2022-08-05T10:21:59.094Z,3.03
2022-08-05T10:24:26.998Z,2.70
2022-08-05T10:27:00.642Z,2.90
2022-08-05T10:30:06.986Z,2.90
2022-08-05T10:32:52.514Z,3.10
2022-08-05T10:35:04.782Z,2.93
2022-08-05T10:37:40.123Z,2.37
2022-08-05T10:40:35.130Z,2.50
2022-08-05T10:43:36.353Z,2.83
2022-08-05T10:46:07.120Z,3.07
2022-08-05T10:48:57.181Z,3.53
2022-08-05T10:51:28.507Z,2.80
2022-08-05T10:53:56.290Z,3.20
2022-08-05T10:56:30.791Z,2.63
2022-08-05T10:59:12.229Z,2.80
2022-08-05T11:01:54.021Z,2.60
2022-08-05T11:04:26.375Z,2.50
2022-08-05T11:07:04.586Z,2.33
2022-08-05T11:09:46.752Z,3.00
2022-08-05T11:12:55.107Z,3.40
2022-08-05T11:16:00.499Z,3.07
2022-08-05T11:18:24.425Z,2.93
2022-08-05T11:20:53.057Z,2.77
2022-08-05T11:24:02.605Z,2.77
2022-08-05T11:26:32.355Z,2.80
2022-08-05T11:29:12.006Z,2.60
2022-08-05T11:31:57.114Z,3.20
2022-08-05T11:34:47.503Z,2.90
2022-08-05T11:38:29.638Z,3.47
2022-08-05T11:41:34.735Z,2.90
2022-08-05T11:44:04.725Z,2.40
2022-08-05T11:47:09.925Z,2.90
2022-08-05T11:49:25.146Z,2.63
2022-08-05T11:51:57.707Z,2.70
2022-08-05T11:54:34.370Z,3.30
2022-08-05T11:57:07.583Z,3.40
2022-08-05T11:59:49.564Z,3.10
2022-08-05T12:02:29.673Z,3.23
2022-08-05T12:05:00.002Z,2.90
2022-08-05T12:08:08.180Z,2.90
2022-08-05T12:10:24.892Z,3.10
2022-08-05T12:13:15.817Z,2.60
2022-08-05T12:15:49.829Z,3.07
2022-08-05T12:18:33.756Z,3.20
2022-08-05T12:21:15.343Z,2.80
2022-08-05T12:24:08.643Z,3.20
2022-08-05T12:26:53.138Z,2.80
2022-08-05T12:29:27.029Z,3.30
2022-08-05T12:31:55.462Z,2.83
2022-08-05T12:34:28.865Z,2.80
2022-08-05T12:36:58.782Z,2.60
2022-08-05T12:39:34.552Z,3.10
2022-08-05T12:42:17.234Z,3.13
2022-08-05T12:44:45.030Z,2.60
2022-08-05T12:47:17.134Z,2.70
2022-08-05T12:50:04.464Z,3.00
2022-08-05T12:52:38.740Z,2.70
2022-08-05T12:55:26.408Z,2.83
2022-08-05T12:58:52.495Z,2.83
2022-08-05T13:02:03.859Z,3.30
2022-08-05T13:03:39.036Z,3.27
2022-08-05T13:06:16.108Z,2.80
2022-08-05T13:08:49.097Z,2.80
2022-08-05T13:12:02.352Z,3.00
2022-08-05T13:14:11.133Z,3.30
2022-08-05T13:16:49.496Z,2.77
2022-08-05T13:19:16.415Z,3.17
2022-08-05T13:21:48.176Z,3.23
2022-08-05T13:24:36.322Z,2.70
2022-08-05T13:27:11.121Z,3.17
2022-08-05T13:29:59.498Z,2.63
2022-08-05T13:32:33.980Z,2.77
2022-08-05T13:35:03.347Z,2.60
2022-08-05T13:37:34.960Z,2.87
2022-08-05T13:40:16.811Z,3.17
2022-08-05T13:42:47.360Z,2.80
2022-08-05T13:45:22.399Z,2.97
2022-08-05T13:48:09.129Z,2.83
2022-08-05T13:50:44.673Z,2.63
2022-08-05T13:53:15.801Z,2.63
2022-08-05T13:55:50.099Z,3.23
2022-08-05T13:58:30.918Z,2.60
2022-08-05T14:00:58.747Z,2.60
2022-08-05T14:03:30.324Z,3.00
2022-08-05T14:06:25.986Z,2.80
2022-08-05T14:08:46.666Z,2.70
2022-08-05T14:11:21.006Z,2.70
2022-08-05T14:13:49.036Z,2.67
2022-08-05T14:16:22.330Z,2.97
2022-08-05T14:18:49.509Z,3.10
2022-08-05T14:22:07.505Z,2.50
2022-08-05T14:24:04.346Z,2.70
2022-08-05T14:26:37.054Z,2.50
2022-08-05T14:29:16.050Z,2.60
2022-08-05T14:32:03.109Z,2.80
2022-08-05T14:34:35.210Z,2.90
2022-08-05T14:37:04.095Z,2.77
2022-08-05T14:39:49.311Z,3.10
2022-08-05T14:42:20.806Z,2.50
2022-08-05T14:44:49.187Z,2.40
2022-08-05T14:47:16.351Z,3.00
2022-08-05T14:50:17.353Z,3.07
2022-08-05T14:52:53.063Z,3.10
2022-08-05T14:55:24.495Z,3.20
2022-08-05T14:57:54.650Z,3.30
2022-08-05T15:00:28.057Z,2.77
2022-08-05T15:02:55.423Z,3.00
2022-08-05T15:05:22.514Z,3.00
2022-08-05T15:08:08.873Z,3.40
2022-08-05T15:10:43.507Z,3.00
2022-08-05T15:13:13.401Z,3.77
2022-08-05T15:15:54.885Z,3.60
2022-08-05T15:18:23.377Z,3.80
2022-08-05T15:20:50.999Z,3.87
2022-08-05T15:23:18.176Z,4.00
2022-08-05T15:25:53.298Z,3.67
2022-08-05T15:28:27.381Z,4.00
2022-08-05T15:30:55.318Z,4.20
2022-08-05T15:34:04.969Z,4.00
2022-08-05T15:36:17.720Z,4.10
2022-08-05T15:41:00.570Z,3.37
2022-08-05T15:41:58.121Z,3.80
2022-08-05T15:44:28.025Z,4.00
2022-08-05T15:46:58.110Z,3.90
2022-08-05T15:49:48.048Z,3.90
2022-08-05T15:52:16.269Z,4.43
2022-08-05T15:54:44.181Z,3.70
2022-08-05T15:57:11.487Z,4.17
2022-08-05T15:59:40.589Z,4.33
2022-08-05T16:02:09.444Z,3.87
2022-08-05T16:04:41.399Z,4.13
2022-08-05T16:07:10.647Z,3.90
2022-08-05T16:09:38.075Z,3.90
2022-08-05T16:12:09.485Z,4.60
2022-08-05T16:14:38.421Z,3.90
2022-08-05T16:17:05.450Z,4.40
2022-08-05T16:20:04.390Z,4.03
2022-08-05T16:22:27.313Z,4.50
2022-08-05T16:24:54.766Z,4.60
2022-08-05T16:27:32.246Z,4.90
2022-08-05T16:30:23.120Z,4.40
2022-08-05T16:32:52.872Z,4.67
2022-08-05T16:35:19.789Z,5.33
2022-08-05T16:38:01.942Z,4.77
2022-08-05T16:40:36.945Z,5.10
2022-08-05T16:43:04.575Z,5.00
2022-08-05T16:46:05.296Z,5.50
2022-08-05T16:48:25.856Z,4.77
2022-08-05T16:51:00.591Z,5.80
2022-08-05T16:53:32.189Z,5.57
2022-08-05T16:56:14.563Z,4.90
2022-08-05T16:58:41.439Z,5.40
2022-08-05T17:01:10.423Z,5.20
2022-08-05T17:03:37.804Z,5.37
2022-08-05T17:06:06.307Z,5.67
2022-08-05T17:08:52.340Z,5.37
2022-08-05T17:11:23.876Z,5.27
2022-08-05T17:14:00.356Z,5.70
2022-08-05T17:16:36.505Z,6.00
2022-08-05T17:19:07.043Z,6.03
2022-08-05T17:21:36.193Z,5.37
2022-08-05T17:24:18.675Z,4.50
2022-08-05T17:26:56.946Z,4.93
2022-08-05T17:29:33.698Z,4.60
2022-08-05T17:32:08.629Z,5.37
2022-08-05T17:34:39.645Z,5.00
2022-08-05T17:37:32.124Z,4.87
2022-08-05T17:39:55.834Z,5.13
2022-08-05T17:42:28.612Z,5.60
2022-08-05T17:44:57.227Z,5.80
2022-08-05T17:47:24.231Z,5.10
2022-08-05T17:50:00.475Z,4.90
2022-08-05T17:52:32.166Z,5.43
2022-08-05T17:54:59.437Z,5.43
2022-08-05T17:57:27.780Z,5.53
2022-08-05T18:00:03.538Z,5.30
2022-08-05T18:02:33.433Z,4.53
2022-08-05T18:05:06.299Z,5.33
2022-08-05T18:07:41.513Z,5.27
2022-08-05T18:10:14.052Z,5.70
2022-08-05T18:12:48.248Z,5.80
2022-08-05T18:15:15.305Z,5.00
2022-08-05T18:17:59.677Z,4.90
2022-08-05T18:20:31.842Z,5.00
2022-08-05T18:23:08.869Z,5.20
2022-08-05T18:25:39.143Z,6.53
2022-08-05T18:28:07.526Z,5.60
2022-08-05T18:30:39.112Z,5.40
2022-08-05T18:33:08.552Z,5.10
2022-08-05T18:36:00.877Z,5.93
2022-08-05T18:38:30.808Z,4.60
2022-08-05T18:41:55.541Z,4.90
2022-08-05T18:43:48.716Z,4.93
2022-08-05T18:46:19.822Z,5.03
2022-08-05T18:48:52.108Z,5.00
2022-08-05T18:52:05.108Z,5.73
2022-08-05T18:54:31.254Z,5.90
2022-08-05T18:57:01.103Z,4.90
2022-08-05T18:59:43.522Z,5.70
2022-08-05T19:02:28.021Z,6.30
2022-08-05T19:05:02.355Z,6.40
2022-08-05T19:07:50.091Z,5.53
2022-08-05T19:10:27.947Z,5.03
2022-08-05T19:12:56.649Z,5.30
2022-08-05T19:15:56.948Z,5.30
2022-08-05T19:18:13.530Z,5.00
2022-08-05T19:20:48.931Z,5.30
2022-08-05T19:24:05.806Z,5.30
2022-08-05T19:26:03.474Z,5.30
2022-08-05T19:28:34.994Z,4.83
2022-08-05T19:31:05.761Z,4.93
2022-08-05T19:33:36.837Z,5.03
2022-08-05T19:36:08.853Z,5.40
2022-08-05T19:38:36.711Z,4.60
2022-08-05T19:41:07.373Z,4.70
2022-08-05T19:44:05.375Z,4.70
2022-08-05T19:46:29.523Z,5.10
2022-08-05T19:49:03.131Z,4.70
2022-08-05T19:52:08.758Z,4.80
2022-08-05T19:54:25.429Z,5.00
2022-08-05T19:56:55.649Z,5.00
2022-08-05T19:59:56.657Z,4.67
2022-08-05T20:02:09.827Z,4.60
2022-08-05T20:04:37.982Z,5.20
2022-08-05T20:07:13.376Z,5.03
2022-08-05T20:09:53.959Z,4.40
2022-08-05T20:12:23.472Z,4.50
2022-08-05T20:14:52.265Z,5.10
2022-08-05T20:17:23.453Z,4.93
2022-08-05T20:19:56.710Z,4.77
2022-08-05T20:22:26.961Z,4.60
2022-08-05T20:24:55.848Z,4.80
2022-08-05T20:27:41.849Z,4.80
2022-08-05T20:30:10.345Z,5.00
2022-08-05T20:32:37.552Z,5.20
2022-08-05T20:35:11.993Z,4.37
2022-08-05T20:38:06.405Z,5.50
2022-08-05T20:40:27.093Z,4.73
2022-08-05T20:43:00.070Z,4.17
2022-08-05T20:45:56.190Z,4.53
2022-08-05T20:48:16.441Z,5.00
2022-08-05T20:50:45.436Z,4.80
2022-08-05T20:53:16.135Z,3.83
2022-08-05T20:56:08.410Z,4.80
2022-08-05T20:58:35.850Z,4.27
2022-08-05T21:01:04.437Z,5.00
2022-08-05T21:03:34.586Z,4.00
2022-08-05T21:06:02.243Z,3.90
2022-08-05T21:08:42.396Z,3.70
2022-08-05T21:11:12.829Z,3.80
2022-08-05T21:13:48.020Z,3.23
2022-08-05T21:16:29.542Z,3.60
2022-08-05T21:19:00.365Z,4.57
2022-08-05T21:21:44.506Z,3.93
2022-08-05T21:24:16.643Z,3.80
2022-08-05T21:26:53.669Z,3.80
2022-08-05T21:29:31.352Z,3.77
2022-08-05T21:31:59.773Z,4.10
2022-08-05T21:34:28.209Z,3.50
2022-08-05T21:36:55.419Z,4.17
2022-08-05T21:39:26.978Z,3.83
2022-08-05T21:42:01.039Z,3.63
2022-08-05T21:44:29.198Z,3.20
2022-08-05T21:46:58.179Z,3.43
2022-08-05T21:49:48.215Z,3.67
2022-08-05T21:52:21.871Z,3.33
2022-08-05T21:54:55.835Z,4.10
2022-08-05T21:57:31.515Z,4.07
2022-08-05T22:00:06.159Z,3.20
2022-08-05T22:02:34.082Z,3.53
2022-08-05T22:05:01.059Z,3.30
2022-08-05T22:07:39.315Z,3.27
2022-08-05T22:10:17.471Z,4.30
2022-08-05T22:12:53.767Z,3.73
2022-08-05T22:15:57.228Z,3.43
2022-08-05T22:18:08.628Z,3.80
2022-08-05T22:20:38.932Z,3.43
2022-08-05T22:24:01.325Z,3.40
2022-08-05T22:26:31.116Z,3.47
2022-08-05T22:28:58.161Z,3.77
2022-08-05T22:31:30.103Z,3.20
2022-08-05T22:34:01.134Z,3.83
2022-08-05T22:36:29.048Z,4.00
2022-08-05T22:38:56.262Z,4.17
2022-08-05T22:41:26.177Z,4.00
2022-08-05T22:44:11.964Z,3.50
2022-08-05T22:46:40.825Z,3.87
2022-08-05T22:49:23.123Z,3.77
2022-08-05T22:52:06.673Z,3.90
2022-08-05T22:54:38.799Z,4.27
2022-08-05T22:57:06.656Z,3.80
2022-08-05T22:59:46.311Z,3.80
2022-08-05T23:02:18.208Z,3.10
2022-08-05T23:04:52.070Z,3.73
2022-08-05T23:07:21.993Z,4.27
2022-08-05T23:09:57.037Z,3.97
2022-08-05T23:12:28.978Z,3.03
2022-08-05T23:14:59.209Z,3.67
2022-08-05T23:17:35.106Z,3.70
2022-08-05T23:20:16.423Z,4.07
2022-08-05T23:22:47.294Z,3.60
2022-08-05T23:25:17.360Z,3.60
2022-08-05T23:28:03.903Z,4.07
2022-08-05T23:30:40.393Z,2.90
2022-08-05T23:33:16.197Z,3.53
2022-08-05T23:35:49.203Z,3.53
2022-08-05T23:38:16.979Z,3.60
2022-08-05T23:40:49.837Z,3.90
2022-08-05T23:43:25.010Z,3.90
2022-08-05T23:46:05.082Z,3.57
2022-08-05T23:48:59.965Z,3.77
2022-08-05T23:51:53.626Z,3.20
2022-08-05T23:54:33.722Z,4.00
2022-08-05T23:57:04.959Z,3.60
2022-08-05T23:59:37.669Z,3.90
